Bonnard, Canada
Current Conditions -  °F | °C
As of 3:00 PM on Friday 19 Dec 2014 (Local Time) from CYRJ Reporting Station
Few Clouds Few Clouds  
Wind Chill: 14°   Ceiling: Unl
Heat Index: 23°   Visibility: 40mi
Dew Point: 10°   Wind: 8mph
Humidity: 59%   Direction: 300°WNW
Pressure: 30.09"   Gusts: NA
Location:  50.73°N, 71.02°W
Report Text: CYRJ 192000Z 30007KT 40SM FEW100 M05/M12 A3009 RMK AC1 AC TR SLP204
Loading
Personal Weather Stations






























Interactive Weather Map New forecast layout! Learn more

10-Day Weather Forecast

Advertisements
Track Severe Weather on mobile